Time;durP1;ratioP1;P1;durP2;ratioP2;P2;SDS_P1;SDS_P2;PMS_P1;PMS_P2;Temp;Humidity;BMP_temperature;BMP_pressure;BME280_temperature;BME280_humidity;BME280_pressure;Samples;Min_cycle;Max_cycle;Signal;HPM_P1;HPM_P2
2022/12/11 00:02:05;;;;;;;80.97;18.45;;;;;;;;;;4975672;28;20035;-75
2022/12/11 00:04:31;;;;;;;71.95;16.58;;;;;;;;;;4975709;28;20030;-75
2022/12/11 00:06:57;;;;;;;79.72;17.85;;;;;;;;;;4975333;28;20056;-75
2022/12/11 00:09:23;;;;;;;74.95;19.13;;;;;;;;;;4975418;28;20102;-75
2022/12/11 00:11:49;;;;;;;84.75;17.85;;;;;;;;;;4974336;28;20371;-74
2022/12/11 00:14:16;;;;;;;66.68;17.27;;;;;;;;;;4964542;28;20030;-75
2022/12/11 00:16:42;;;;;;;73.82;17.58;;;;;;;;;;4974671;28;20026;-75
2022/12/11 00:19:08;;;;;;;74.28;17.55;;;;;;;;;;4992531;28;20026;-75
2022/12/11 00:21:34;;;;;;;67.07;16.23;;;;;;;;;;4994660;28;20108;-75
2022/12/11 00:24:00;;;;;;;78.57;18.35;;;;;;;;;;4994424;28;20461;-75
2022/12/11 00:26:26;;;;;;;62.42;17.80;;;;;;;;;;4994594;28;20130;-75
2022/12/11 00:28:54;;;;;;;80.03;19.33;;;;;;;;;;4994427;28;20030;-75
2022/12/11 00:31:20;;;;;;;74.82;18.10;;;;;;;;;;4994481;28;20038;-75
2022/12/11 00:33:50;;;;;;;75.38;18.92;;;;;;;;;;4994351;28;20112;-75
2022/12/11 00:36:17;;;;;;;62.87;16.60;;;;;;;;;;4994449;28;20018;-75
2022/12/11 00:38:44;;;;;;;62.50;17.45;;;;;;;;;;4994339;28;20252;-74
2022/12/11 00:41:10;;;;;;;62.70;16.48;;;;;;;;;;4994318;28;20022;-75
2022/12/11 00:43:36;;;;;;;73.47;17.67;;;;;;;;;;4994300;28;20030;-75
2022/12/11 00:46:03;;;;;;;68.40;17.75;;;;;;;;;;4994454;28;20054;-75
2022/12/11 00:48:29;;;;;;;60.17;16.50;;;;;;;;;;4994258;28;20022;-75
2022/12/11 00:50:55;;;;;;;72.25;17.15;;;;;;;;;;4994282;28;20413;-75
2022/12/11 00:53:21;;;;;;;63.17;17.65;;;;;;;;;;4994089;28;20072;-75
2022/12/11 00:55:47;;;;;;;70.18;17.60;;;;;;;;;;4994059;28;20478;-75
2022/12/11 00:58:14;;;;;;;64.60;16.90;;;;;;;;;;4994151;28;20032;-75
2022/12/11 01:00:40;;;;;;;67.55;17.42;;;;;;;;;;4994122;28;20026;-75
2022/12/11 01:03:06;;;;;;;59.22;17.10;;;;;;;;;;4994078;28;20025;-75
2022/12/11 01:05:32;;;;;;;66.28;17.50;;;;;;;;;;4994008;28;20029;-75
2022/12/11 01:07:58;;;;;;;67.97;17.67;;;;;;;;;;4994215;28;20034;-75
2022/12/11 01:10:24;;;;;;;66.05;18.13;;;;;;;;;;4994122;28;20113;-75
2022/12/11 01:12:58;;;;;;;62.95;16.92;;;;;;;;;;4993892;28;20100;-75
2022/12/11 01:15:26;;;;;;;66.93;18.15;;;;;;;;;;4994280;28;20375;-75
2022/12/11 01:17:53;;;;;;;68.45;16.73;;;;;;;;;;4993882;28;20026;-75
2022/12/11 01:20:20;;;;;;;59.03;17.55;;;;;;;;;;4993891;28;20157;-75
2022/12/11 01:22:46;;;;;;;65.28;17.85;;;;;;;;;;4994654;28;20030;-75
2022/12/11 01:25:12;;;;;;;61.40;18.23;;;;;;;;;;4997785;28;20030;-75
2022/12/11 01:27:38;;;;;;;58.30;18.40;;;;;;;;;;4997905;28;20027;-75
2022/12/11 01:30:06;;;;;;;72.03;18.52;;;;;;;;;;4997628;28;20449;-75
2022/12/11 01:32:32;;;;;;;59.53;18.58;;;;;;;;;;4997963;28;20035;-75
2022/12/11 01:34:58;;;;;;;67.85;18.38;;;;;;;;;;4997521;28;20033;-75
2022/12/11 01:37:24;;;;;;;54.03;16.65;;;;;;;;;;4997732;28;20030;-75
2022/12/11 01:39:50;;;;;;;60.78;18.58;;;;;;;;;;4997558;28;20069;-75
2022/12/11 01:42:19;;;;;;;63.28;18.80;;;;;;;;;;4997559;28;20037;-75
2022/12/11 01:44:45;;;;;;;63.25;17.92;;;;;;;;;;4997499;28;20026;-75
2022/12/11 01:47:11;;;;;;;61.53;18.00;;;;;;;;;;4997462;28;20022;-75
2022/12/11 01:49:39;;;;;;;61.15;17.42;;;;;;;;;;4997165;28;20073;-75
2022/12/11 01:52:10;;;;;;;58.15;18.17;;;;;;;;;;4997430;28;20373;-75
2022/12/11 01:54:37;;;;;;;64.22;19.02;;;;;;;;;;4997028;28;20490;-75
2022/12/11 01:57:07;;;;;;;59.00;18.10;;;;;;;;;;4997392;28;20027;-75
2022/12/11 01:59:33;;;;;;;;;;;;;;;;;;4997635;28;20030;-75
2022/12/11 02:02:14;;;;;;;62.30;17.65;;;;;;;;;;4997269;28;20241;-75
2022/12/11 02:04:41;;;;;;;58.08;16.00;;;;;;;;;;4979638;28;20026;-75
2022/12/11 02:07:07;;;;;;;56.22;18.10;;;;;;;;;;4997093;28;20030;-75
2022/12/11 02:09:34;;;;;;;68.55;19.38;;;;;;;;;;4996886;28;20049;-75
2022/12/11 02:12:24;;;;;;;74.72;20.42;;;;;;;;;;4996920;28;20039;-75
2022/12/11 02:15:02;;;;;;;71.80;19.63;;;;;;;;;;4979364;28;20120;-75
2022/12/11 02:17:31;;;;;;;65.78;16.92;;;;;;;;;;4996957;28;20061;-75
2022/12/11 02:20:15;;;;;;;70.13;18.70;;;;;;;;;;4996793;28;20029;-75
2022/12/11 02:22:58;;;;;;;71.95;18.77;;;;;;;;;;4996892;28;20069;-75
2022/12/11 02:25:32;;;;;;;68.88;18.65;;;;;;;;;;4996714;28;20488;-75
2022/12/11 02:28:04;;;;;;;66.05;18.40;;;;;;;;;;4996774;28;20030;-75
2022/12/11 02:30:30;;;;;;;63.85;18.55;;;;;;;;;;4996608;28;20027;-75
2022/12/11 02:32:57;;;;;;;60.10;18.65;;;;;;;;;;4996567;28;20045;-75
2022/12/11 02:35:34;;;;;;;66.75;18.63;;;;;;;;;;4995513;28;20034;-75
2022/12/11 02:38:05;;;;;;;57.47;17.92;;;;;;;;;;4996646;28;20041;-75
2022/12/11 02:40:34;;;;;;;63.78;18.73;;;;;;;;;;4996501;28;20029;-75
2022/12/11 02:43:02;;;;;;;58.63;17.60;;;;;;;;;;4996408;28;20037;-75
2022/12/11 02:45:29;;;;;;;58.28;17.98;;;;;;;;;;4996312;28;20030;-75
2022/12/11 02:47:58;;;;;;;66.20;18.15;;;;;;;;;;4996385;28;20034;-75
2022/12/11 02:50:25;;;;;;;72.63;19.77;;;;;;;;;;4996304;28;20418;-75
2022/12/11 02:52:54;;;;;;;70.28;18.52;;;;;;;;;;4996131;28;20026;-75
2022/12/11 02:55:20;;;;;;;67.57;17.90;;;;;;;;;;4996138;28;20046;-75
2022/12/11 02:58:06;;;;;;;65.57;18.73;;;;;;;;;;4996144;28;20489;-75
2022/12/11 03:00:33;;;;;;;59.53;18.33;;;;;;;;;;4995753;28;20034;-75
2022/12/11 03:02:59;;;;;;;60.80;19.10;;;;;;;;;;4996014;28;20088;-75
2022/12/11 03:05:26;;;;;;;66.57;18.38;;;;;;;;;;4995782;28;20034;-75
2022/12/11 03:07:52;;;;;;;65.35;17.88;;;;;;;;;;4996155;28;20046;-75
2022/12/11 03:10:19;;;;;;;65.88;19.90;;;;;;;;;;4995838;28;20058;-75
2022/12/11 03:12:46;;;;;;;58.85;17.73;;;;;;;;;;4995837;28;20034;-75
2022/12/11 03:15:15;;;;;;;68.65;18.23;;;;;;;;;;4995716;28;20413;-75
2022/12/11 03:17:50;;;;;;;64.53;17.92;;;;;;;;;;4995857;28;20359;-75
2022/12/11 03:20:22;;;;;;;74.97;19.35;;;;;;;;;;4995689;28;20121;-75
2022/12/11 03:23:01;;;;;;;59.47;17.33;;;;;;;;;;4995741;28;20022;-75
2022/12/11 03:25:50;;;;;;;67.53;18.42;;;;;;;;;;4995584;28;20030;-75
2022/12/11 03:28:19;;;;;;;62.95;18.55;;;;;;;;;;4983116;28;20041;-75
2022/12/11 03:30:48;;;;;;;67.05;18.65;;;;;;;;;;4995571;28;20030;-74
2022/12/11 03:33:16;;;;;;;63.97;18.15;;;;;;;;;;4995754;28;20117;-75
2022/12/11 03:35:49;;;;;;;70.40;20.08;;;;;;;;;;4995341;28;20026;-75
2022/12/11 03:38:20;;;;;;;65.72;19.92;;;;;;;;;;4995392;28;20485;-75
2022/12/11 03:40:49;;;;;;;75.03;19.58;;;;;;;;;;4995321;28;20461;-75
2022/12/11 03:43:16;;;;;;;66.22;18.80;;;;;;;;;;4995262;28;20436;-75
2022/12/11 03:45:43;;;;;;;69.78;19.65;;;;;;;;;;4995107;28;20026;-75
2022/12/11 03:48:09;;;;;;;70.72;18.80;;;;;;;;;;4995291;28;20018;-75
2022/12/11 03:50:36;;;;;;;61.67;18.60;;;;;;;;;;4995203;28;20039;-75
2022/12/11 03:53:03;;;;;;;65.57;19.08;;;;;;;;;;4995073;28;20035;-75
2022/12/11 03:55:30;;;;;;;78.07;21.58;;;;;;;;;;4994864;28;20523;-75
2022/12/11 03:57:56;;;;;;;74.68;19.33;;;;;;;;;;4995045;28;20034;-75
2022/12/11 04:00:22;;;;;;;70.18;20.00;;;;;;;;;;4995600;28;20030;-75
2022/12/11 04:03:11;;;;;;;61.05;18.40;;;;;;;;;;4994861;28;20045;-75
2022/12/11 04:05:34;;;;;;;67.88;18.92;;;;;;;;;;4995091;28;20023;-75
2022/12/11 04:08:00;;;;;;;63.63;18.92;;;;;;;;;;4995006;28;20486;-75
2022/12/11 04:10:26;;;;;;;75.40;20.08;;;;;;;;;;4994805;28;20029;-75
2022/12/11 04:12:52;;;;;;;74.38;20.80;;;;;;;;;;4994536;28;20031;-75
2022/12/11 04:15:19;;;;;;;69.32;19.15;;;;;;;;;;4994888;28;20033;-75
2022/12/11 04:26:14;;;;;;;69.10;19.40;;;;;;;;;;4994669;28;20080;-75
2022/12/11 04:28:40;;;;;;;66.68;19.52;;;;;;;;;;4975121;28;20043;-75
2022/12/11 04:31:10;;;;;;;65.20;19.38;;;;;;;;;;4974931;28;20023;-75
2022/12/11 04:33:36;;;;;;;66.30;16.70;;;;;;;;;;4975206;28;20092;-75
2022/12/11 04:36:02;;;;;;;66.60;17.50;;;;;;;;;;4957764;28;20407;-75
2022/12/11 04:38:28;;;;;;;74.10;18.65;;;;;;;;;;4974956;28;20030;-75
2022/12/11 04:40:58;;;;;;;67.25;18.80;;;;;;;;;;4975048;28;20039;-75
2022/12/11 04:43:24;;;;;;;73.70;20.10;;;;;;;;;;4974893;28;20371;-74
2022/12/11 04:45:50;;;;;;;65.18;18.65;;;;;;;;;;4974958;28;20465;-75
2022/12/11 04:48:16;;;;;;;64.80;18.30;;;;;;;;;;4974834;28;20110;-75
2022/12/11 04:50:42;;;;;;;72.28;19.25;;;;;;;;;;4974920;28;20030;-75
2022/12/11 04:53:08;;;;;;;69.05;18.90;;;;;;;;;;4974791;28;20039;-75
2022/12/11 04:55:34;;;;;;;71.75;19.95;;;;;;;;;;4974631;28;20043;-75
2022/12/11 04:58:00;;;;;;;67.93;19.30;;;;;;;;;;4977208;28;20077;-75
2022/12/11 05:00:26;;;;;;;63.55;17.48;;;;;;;;;;4981245;28;20031;-75
2022/12/11 05:02:53;;;;;;;65.88;18.05;;;;;;;;;;4981442;28;20179;-75
2022/12/11 05:05:19;;;;;;;65.30;19.23;;;;;;;;;;4981280;28;20030;-75
2022/12/11 05:07:45;;;;;;;65.25;19.38;;;;;;;;;;4981382;28;20062;-75
2022/12/11 05:10:11;;;;;;;61.08;18.00;;;;;;;;;;4981570;28;20034;-75
2022/12/11 05:12:37;;;;;;;71.13;19.05;;;;;;;;;;4981113;28;20035;-75
2022/12/11 05:15:03;;;;;;;68.72;19.35;;;;;;;;;;4981231;28;20488;-75
2022/12/11 05:17:29;;;;;;;58.97;18.45;;;;;;;;;;4981366;28;20480;-75
2022/12/11 05:19:55;;;;;;;54.13;17.25;;;;;;;;;;4981135;28;20034;-75
2022/12/11 05:22:21;;;;;;;61.92;17.73;;;;;;;;;;4963573;28;20042;-75
2022/12/11 05:24:47;;;;;;;58.95;17.10;;;;;;;;;;4981007;28;20026;-74
2022/12/11 05:27:13;;;;;;;59.20;17.27;;;;;;;;;;4980996;28;20058;-75
2022/12/11 05:29:39;;;;;;;54.83;16.55;;;;;;;;;;4981089;28;20082;-75
2022/12/11 05:32:05;;;;;;;54.83;18.13;;;;;;;;;;4980834;28;20034;-75
2022/12/11 05:34:31;;;;;;;56.13;16.92;;;;;;;;;;4981106;28;20027;-75
2022/12/11 05:36:57;;;;;;;49.13;16.52;;;;;;;;;;4980987;28;20452;-75
2022/12/11 05:39:24;;;;;;;45.45;15.63;;;;;;;;;;4980806;28;20082;-75
2022/12/11 05:41:50;;;;;;;45.28;15.73;;;;;;;;;;4980807;28;20034;-75
2022/12/11 05:44:16;;;;;;;42.05;16.80;;;;;;;;;;4980765;28;20031;-75
2022/12/11 05:46:42;;;;;;;45.20;16.08;;;;;;;;;;4980827;28;20181;-75
2022/12/11 05:49:09;;;;;;;38.70;15.02;;;;;;;;;;4980770;28;20030;-75
2022/12/11 05:51:35;;;;;;;41.85;16.35;;;;;;;;;;4980721;28;20113;-75
2022/12/11 05:54:02;;;;;;;39.13;15.05;;;;;;;;;;4980331;28;20162;-75
2022/12/11 05:56:29;;;;;;;38.17;15.25;;;;;;;;;;4980820;28;20050;-75
2022/12/11 05:58:55;;;;;;;40.95;16.10;;;;;;;;;;4980942;28;20037;-75
2022/12/11 06:01:40;;;;;;;49.47;16.98;;;;;;;;;;4981046;28;20038;-75
2022/12/11 06:04:07;;;;;;;55.42;16.08;;;;;;;;;;4980787;28;20027;-75
2022/12/11 06:06:33;;;;;;;48.83;16.25;;;;;;;;;;4980697;28;20491;-74
2022/12/11 06:09:00;;;;;;;51.83;17.42;;;;;;;;;;4979200;28;20474;-75
2022/12/11 06:11:27;;;;;;;46.85;16.25;;;;;;;;;;4977156;28;20106;-75
2022/12/11 06:13:53;;;;;;;49.65;16.80;;;;;;;;;;4977438;28;20035;-75
2022/12/11 06:16:20;;;;;;;49.38;16.33;;;;;;;;;;4977643;28;20105;-75
2022/12/11 06:18:46;;;;;;;52.28;17.08;;;;;;;;;;4977390;28;20031;-75
2022/12/11 06:21:17;;;;;;;51.00;16.33;;;;;;;;;;4977507;28;20039;-75
2022/12/11 06:23:44;;;;;;;53.65;17.60;;;;;;;;;;4977305;28;20485;-75
2022/12/11 06:26:10;;;;;;;51.70;16.80;;;;;;;;;;4977375;28;20033;-75
2022/12/11 06:28:36;;;;;;;56.72;16.92;;;;;;;;;;4977295;28;20053;-75
2022/12/11 06:31:02;;;;;;;52.20;17.08;;;;;;;;;;4959718;28;20027;-75
2022/12/11 06:33:29;;;;;;;59.15;16.80;;;;;;;;;;4976889;28;20027;-75
2022/12/11 06:35:55;;;;;;;59.00;16.95;;;;;;;;;;4976967;28;20030;-75
2022/12/11 06:38:21;;;;;;;57.33;16.98;;;;;;;;;;4976797;28;20025;-75
2022/12/11 06:40:54;;;;;;;57.95;17.13;;;;;;;;;;4977127;28;20477;-75
2022/12/11 06:43:20;;;;;;;64.28;17.98;;;;;;;;;;4959313;28;20450;-74
2022/12/11 06:45:47;;;;;;;64.20;17.65;;;;;;;;;;4977053;28;20034;-74
2022/12/11 06:48:13;;;;;;;63.90;18.33;;;;;;;;;;4976892;28;20380;-75
2022/12/11 06:50:39;;;;;;;62.72;17.88;;;;;;;;;;4976759;28;20022;-75
2022/12/11 06:53:05;;;;;;;63.53;19.40;;;;;;;;;;4976266;28;20035;-74
2022/12/11 06:55:34;;;;;;;61.17;18.15;;;;;;;;;;4976558;28;20564;-75
2022/12/11 06:58:00;;;;;;;64.35;18.88;;;;;;;;;;4976606;28;20027;-75
2022/12/11 07:00:26;;;;;;;64.82;17.83;;;;;;;;;;4976697;28;20470;-74
2022/12/11 07:02:52;;;;;;;56.25;17.58;;;;;;;;;;4976683;28;20055;-75
2022/12/11 07:05:18;;;;;;;67.43;18.20;;;;;;;;;;4986939;28;20023;-75
2022/12/11 07:07:44;;;;;;;59.38;17.65;;;;;;;;;;4996061;28;20085;-75
2022/12/11 07:10:10;;;;;;;58.75;17.75;;;;;;;;;;4996453;28;20031;-74
2022/12/11 07:12:36;;;;;;;60.08;18.27;;;;;;;;;;4995845;28;20437;-75
2022/12/11 07:15:03;;;;;;;63.28;20.40;;;;;;;;;;4995833;28;20030;-75
2022/12/11 07:17:29;;;;;;;64.25;18.23;;;;;;;;;;4995866;28;20027;-75
2022/12/11 07:19:55;;;;;;;61.80;16.95;;;;;;;;;;4995671;28;20045;-75
2022/12/11 07:22:21;;;;;;;64.97;18.08;;;;;;;;;;4995352;28;20342;-74
2022/12/11 07:24:47;;;;;;;64.53;16.98;;;;;;;;;;4995745;28;20476;-75
2022/12/11 07:27:13;;;;;;;64.40;19.00;;;;;;;;;;4995623;28;20037;-75
2022/12/11 07:29:39;;;;;;;65.00;20.58;;;;;;;;;;4995506;28;20089;-75
2022/12/11 07:32:06;;;;;;;62.35;20.23;;;;;;;;;;4995455;28;20367;-75
2022/12/11 07:34:31;;;;;;;73.53;20.05;;;;;;;;;;4995258;28;20023;-75
2022/12/11 07:36:58;;;;;;;59.53;19.13;;;;;;;;;;4995551;28;20110;-75
2022/12/11 07:39:24;;;;;;;65.20;20.15;;;;;;;;;;4994970;28;20077;-74
2022/12/11 07:41:50;;;;;;;67.28;19.50;;;;;;;;;;4994225;28;20030;-74
2022/12/11 07:44:16;;;;;;;69.25;19.25;;;;;;;;;;4993917;28;20114;-74
2022/12/11 07:46:42;;;;;;;65.45;20.02;;;;;;;;;;4993903;28;20043;-75
2022/12/11 07:49:08;;;;;;;68.95;19.00;;;;;;;;;;4984114;28;20046;-74
2022/12/11 07:51:35;;;;;;;66.95;18.80;;;;;;;;;;4974383;28;20031;-74
2022/12/11 07:54:03;;;;;;;67.00;18.98;;;;;;;;;;4984934;28;20042;-74
2022/12/11 07:56:29;;;;;;;66.57;20.05;;;;;;;;;;4974644;28;20034;-74
2022/12/11 07:58:56;;;;;;;58.45;18.73;;;;;;;;;;4978070;28;21743;-74
2022/12/11 08:01:26;;;;;;;70.65;20.20;;;;;;;;;;4973822;28;20051;-74
2022/12/11 08:03:52;;;;;;;62.00;18.33;;;;;;;;;;4974352;28;20038;-74
2022/12/11 08:06:20;;;;;;;58.58;18.55;;;;;;;;;;4974068;28;20026;-74
2022/12/11 08:08:46;;;;;;;57.75;18.02;;;;;;;;;;4974413;28;20031;-74
2022/12/11 08:11:13;;;;;;;55.05;17.52;;;;;;;;;;4973828;28;20027;-74
2022/12/11 08:13:39;;;;;;;61.80;17.90;;;;;;;;;;4989420;28;20031;-74
2022/12/11 08:16:07;;;;;;;52.78;16.95;;;;;;;;;;4973800;28;20031;-75
2022/12/11 08:18:33;;;;;;;58.70;18.25;;;;;;;;;;4973890;28;20027;-74
2022/12/11 08:20:59;;;;;;;58.72;17.00;;;;;;;;;;4973736;28;20386;-74
2022/12/11 08:23:25;;;;;;;62.33;19.33;;;;;;;;;;4973614;28;20039;-74
2022/12/11 08:25:51;;;;;;;64.03;18.13;;;;;;;;;;4973684;28;20035;-74
2022/12/11 08:28:17;;;;;;;63.95;18.02;;;;;;;;;;4973693;28;20033;-74
2022/12/11 08:30:43;;;;;;;60.20;18.60;;;;;;;;;;4973427;28;20540;-74
2022/12/11 08:33:09;;;;;;;58.35;18.10;;;;;;;;;;4955586;28;20035;-74
2022/12/11 08:35:38;;;;;;;59.38;18.60;;;;;;;;;;4973380;28;20382;-74
2022/12/11 08:38:04;;;;;;;55.72;17.88;;;;;;;;;;4989613;28;20085;-74
2022/12/11 08:40:30;;;;;;;60.90;19.23;;;;;;;;;;4977128;28;20086;-74
2022/12/11 08:42:56;;;;;;;59.65;18.05;;;;;;;;;;4975775;28;20038;-74
2022/12/11 08:45:22;;;;;;;63.58;19.60;;;;;;;;;;4977447;28;20030;-75
2022/12/11 08:47:48;;;;;;;56.63;17.95;;;;;;;;;;4992409;28;20121;-75
2022/12/11 08:50:14;;;;;;;66.60;19.25;;;;;;;;;;4985299;28;20145;-75
2022/12/11 08:52:40;;;;;;;54.85;16.98;;;;;;;;;;4991577;28;20034;-76
2022/12/11 08:55:06;;;;;;;48.90;15.52;;;;;;;;;;4986668;28;20659;-75
2022/12/11 08:57:32;;;;;;;60.42;19.67;;;;;;;;;;4973495;28;20038;-75
2022/12/11 08:59:58;;;;;;;54.75;17.25;;;;;;;;;;4980608;28;20027;-76
2022/12/11 09:02:24;;;;;;;54.45;18.42;;;;;;;;;;4986428;28;20049;-75
2022/12/11 09:04:50;;;;;;;52.10;17.77;;;;;;;;;;4992563;28;20026;-74
2022/12/11 09:07:16;;;;;;;52.13;16.75;;;;;;;;;;4992696;28;20377;-74
2022/12/11 09:09:42;;;;;;;44.95;17.13;;;;;;;;;;4975256;28;20484;-74
2022/12/11 09:12:08;;;;;;;50.83;17.88;;;;;;;;;;4992499;28;20096;-75
2022/12/11 09:14:34;;;;;;;55.38;18.77;;;;;;;;;;4992300;28;20476;-74
2022/12/11 09:17:00;;;;;;;53.63;17.05;;;;;;;;;;4992224;28;20025;-75
2022/12/11 09:19:26;;;;;;;53.42;16.52;;;;;;;;;;4976791;28;20077;-75
2022/12/11 09:21:52;;;;;;;51.20;17.58;;;;;;;;;;4973124;28;20098;-74
2022/12/11 09:24:18;;;;;;;49.55;17.33;;;;;;;;;;4973164;28;20458;-74
2022/12/11 09:26:46;;;;;;;51.63;15.48;;;;;;;;;;4973138;28;20052;-74
2022/12/11 09:29:12;;;;;;;44.42;16.00;;;;;;;;;;4973477;28;20090;-74
2022/12/11 09:31:38;;;;;;;49.08;17.23;;;;;;;;;;4972970;28;20038;-75
2022/12/11 09:34:06;;;;;;;47.58;16.48;;;;;;;;;;4989219;28;20026;-75
2022/12/11 09:36:32;;;;;;;46.85;15.82;;;;;;;;;;4992258;28;20378;-74
2022/12/11 09:39:03;;;;;;;48.25;17.13;;;;;;;;;;4992546;28;20023;-74
2022/12/11 09:41:35;;;;;;;48.53;16.77;;;;;;;;;;4990009;28;20028;-75
2022/12/11 09:44:07;;;;;;;50.50;15.52;;;;;;;;;;4994226;28;20042;-75
2022/12/11 09:46:33;;;;;;;44.88;15.23;;;;;;;;;;4996353;28;20029;-75
2022/12/11 09:49:01;;;;;;;51.50;17.40;;;;;;;;;;4996121;28;20084;-75
2022/12/11 09:51:30;;;;;;;46.80;16.08;;;;;;;;;;4978339;28;20393;-75
2022/12/11 09:53:57;;;;;;;45.00;16.13;;;;;;;;;;4995965;28;20060;-75
2022/12/11 09:56:38;;;;;;;42.55;15.98;;;;;;;;;;5004767;28;20070;-75
2022/12/11 09:59:23;;;;;;;44.15;15.77;;;;;;;;;;5015443;28;20368;-74
2022/12/11 10:01:58;;;;;;;44.03;15.27;;;;;;;;;;5015485;28;20092;-75
2022/12/11 10:04:37;;;;;;;42.85;15.35;;;;;;;;;;5015381;28;20030;-75
2022/12/11 10:07:18;;;;;;;49.17;17.38;;;;;;;;;;5015261;28;20033;-75
2022/12/11 10:09:44;;;;;;;;;;;;;;;;;;5003155;28;20085;-74
2022/12/11 10:12:29;;;;;;;49.72;16.38;;;;;;;;;;4986388;28;19918;-74
2022/12/11 10:15:13;;;;;;;47.13;17.17;;;;;;;;;;4975520;28;20030;-75
2022/12/11 10:17:40;;;;;;;47.42;18.17;;;;;;;;;;4993506;28;20096;-74
2022/12/11 10:20:09;;;;;;;44.15;16.05;;;;;;;;;;4987091;28;20022;-75
2022/12/11 10:22:35;;;;;;;48.13;17.70;;;;;;;;;;4975840;28;20042;-75
2022/12/11 10:25:04;;;;;;;46.08;17.08;;;;;;;;;;4975760;28;20113;-75
2022/12/11 10:27:32;;;;;;;50.22;18.23;;;;;;;;;;4991893;28;20018;-75
2022/12/11 10:30:07;;;;;;;44.72;17.55;;;;;;;;;;4996353;28;20031;-76
2022/12/11 10:32:43;;;;;;;46.92;17.15;;;;;;;;;;4985239;28;20430;-75
2022/12/11 10:35:13;;;;;;;49.10;16.60;;;;;;;;;;4968495;28;20469;-76
2022/12/11 10:37:39;;;;;;;46.65;17.35;;;;;;;;;;4999218;28;20112;-75
2022/12/11 10:40:05;;;;;;;45.28;18.95;;;;;;;;;;5006216;28;20126;-75
2022/12/11 10:42:31;;;;;;;48.33;17.10;;;;;;;;;;5008604;28;20022;-75
2022/12/11 10:44:59;;;;;;;46.22;17.65;;;;;;;;;;4978337;28;20033;-75
2022/12/11 10:47:25;;;;;;;50.80;17.83;;;;;;;;;;4996476;28;20033;-75
2022/12/11 10:49:57;;;;;;;48.60;17.48;;;;;;;;;;5016065;28;20022;-75
2022/12/11 10:52:25;;;;;;;49.50;16.63;;;;;;;;;;4995417;28;20036;-75
2022/12/11 10:55:05;;;;;;;42.80;17.15;;;;;;;;;;4984177;28;20418;-73
2022/12/11 10:57:33;;;;;;;43.30;16.98;;;;;;;;;;4976239;28;20378;-75
2022/12/11 11:00:00;;;;;;;46.33;18.27;;;;;;;;;;4979212;28;20050;-75
2022/12/11 11:02:26;;;;;;;40.58;17.52;;;;;;;;;;4986247;28;20031;-74
2022/12/11 11:04:53;;;;;;;44.63;17.67;;;;;;;;;;4979588;28;20397;-75
2022/12/11 11:07:20;;;;;;;45.97;17.65;;;;;;;;;;4977977;28;20065;-75
2022/12/11 11:09:47;;;;;;;44.92;17.02;;;;;;;;;;4985352;28;20480;-75
2022/12/11 11:12:23;;;;;;;44.78;16.27;;;;;;;;;;4980761;28;20480;-75
2022/12/11 11:15:12;;;;;;;42.35;16.65;;;;;;;;;;4995738;28;20022;-75
2022/12/11 11:17:43;;;;;;;45.47;17.48;;;;;;;;;;4975908;28;20077;-75
2022/12/11 11:20:14;;;;;;;42.88;16.65;;;;;;;;;;4994371;28;20029;-75
2022/12/11 11:22:42;;;;;;;40.13;17.20;;;;;;;;;;5000899;28;20030;-75
2022/12/11 11:25:15;;;;;;;38.00;16.02;;;;;;;;;;4994812;28;20034;-75
2022/12/11 11:27:53;;;;;;;42.67;17.33;;;;;;;;;;4995528;28;20038;-75
2022/12/11 11:30:24;;;;;;;35.03;14.55;;;;;;;;;;4997843;28;20034;-74
2022/12/11 11:32:51;;;;;;;37.92;16.15;;;;;;;;;;4992269;28;20026;-74
2022/12/11 11:35:19;;;;;;;35.85;15.93;;;;;;;;;;4979039;28;20057;-75
2022/12/11 11:37:46;;;;;;;40.00;16.55;;;;;;;;;;4987446;28;20087;-75
2022/12/11 11:40:15;;;;;;;34.88;15.38;;;;;;;;;;4995285;28;20037;-75
2022/12/11 11:43:00;;;;;;;36.38;16.65;;;;;;;;;;4995084;28;20034;-75
2022/12/11 11:45:28;;;;;;;37.10;15.85;;;;;;;;;;4979370;28;20029;-76
2022/12/11 11:48:20;;;;;;;36.63;15.52;;;;;;;;;;4995175;28;20026;-76
2022/12/11 11:50:49;;;;;;;38.00;15.70;;;;;;;;;;4971379;28;20080;-77
2022/12/11 11:53:36;;;;;;;37.97;15.45;;;;;;;;;;4976643;28;20034;-77
2022/12/11 11:56:21;;;;;;;39.58;15.93;;;;;;;;;;4983025;28;20166;-77
2022/12/11 11:58:58;;;;;;;39.15;16.23;;;;;;;;;;4982320;28;20469;-77
2022/12/11 12:01:24;;;;;;;35.90;15.38;;;;;;;;;;4994566;28;20433;-77
2022/12/11 12:03:51;;;;;;;36.05;16.17;;;;;;;;;;4994792;28;20026;-76
2022/12/11 12:06:17;;;;;;;33.00;13.90;;;;;;;;;;4995004;28;20030;-77
2022/12/11 12:08:56;;;;;;;38.05;15.60;;;;;;;;;;4993781;28;20471;-76
2022/12/11 12:11:34;;;;;;;35.67;15.38;;;;;;;;;;4994907;28;20378;-77
2022/12/11 12:14:16;;;;;;;36.40;15.73;;;;;;;;;;4994444;28;20034;-77
2022/12/11 12:16:54;;;;;;;36.20;15.18;;;;;;;;;;4994299;28;20084;-77
2022/12/11 12:19:26;;;;;;;32.10;14.80;;;;;;;;;;4991194;28;20085;-75
2022/12/11 12:21:53;;;;;;;35.67;16.17;;;;;;;;;;4974541;28;20027;-76
2022/12/11 12:24:25;;;;;;;32.47;14.35;;;;;;;;;;4989831;28;20033;-76
2022/12/11 12:27:11;;;;;;;34.03;14.38;;;;;;;;;;4996826;28;20058;-77
2022/12/11 12:29:40;;;;;;;32.00;13.88;;;;;;;;;;4988136;28;20035;-77
2022/12/11 12:32:12;;;;;;;33.50;14.05;;;;;;;;;;5000029;28;20045;-77
2022/12/11 12:34:48;;;;;;;31.30;13.82;;;;;;;;;;4998850;28;20026;-77
2022/12/11 12:37:14;;;;;;;32.28;14.32;;;;;;;;;;4996176;28;20470;-77
2022/12/11 12:39:40;;;;;;;33.35;13.98;;;;;;;;;;4995114;28;20033;-76
2022/12/11 12:42:24;;;;;;;31.73;13.73;;;;;;;;;;4994431;28;20077;-77
2022/12/11 12:44:56;;;;;;;31.20;14.18;;;;;;;;;;4993893;28;20030;-76
2022/12/11 12:47:22;;;;;;;30.98;13.05;;;;;;;;;;4979331;28;20465;-77
2022/12/11 12:49:49;;;;;;;29.88;13.70;;;;;;;;;;4981308;28;20085;-77
2022/12/11 12:52:25;;;;;;;33.38;13.65;;;;;;;;;;4987327;28;20392;-77
2022/12/11 12:55:12;;;;;;;31.10;13.10;;;;;;;;;;4986392;28;20050;-77
2022/12/11 12:57:39;;;;;;;31.35;14.02;;;;;;;;;;4979175;28;20050;-76
2022/12/11 13:00:07;;;;;;;29.67;12.93;;;;;;;;;;4978722;28;20035;-76
2022/12/11 13:02:33;;;;;;;28.60;12.60;;;;;;;;;;4984322;28;20022;-77
2022/12/11 13:05:02;;;;;;;32.40;14.18;;;;;;;;;;4994311;28;20069;-78
2022/12/11 13:07:30;;;;;;;33.35;13.52;;;;;;;;;;4993659;28;20049;-76
2022/12/11 13:10:00;;;;;;;34.72;14.77;;;;;;;;;;4993940;28;20376;-76
2022/12/11 13:12:43;;;;;;;34.20;15.10;;;;;;;;;;4994069;28;20042;-76
2022/12/11 13:15:45;;;;;;;35.13;14.35;;;;;;;;;;4993962;28;20026;-76
2022/12/11 13:18:32;;;;;;;33.53;13.93;;;;;;;;;;4933739;29;20506;-76
2022/12/11 13:20:58;;;;;;;34.78;14.50;;;;;;;;;;4994300;28;20041;-76
2022/12/11 13:23:29;;;;;;;33.25;14.45;;;;;;;;;;4998231;28;20057;-76
2022/12/11 13:25:57;;;;;;;34.08;15.20;;;;;;;;;;4997763;28;20037;-75
2022/12/11 13:28:32;;;;;;;33.38;14.20;;;;;;;;;;4980411;28;20062;-75
2022/12/11 13:31:04;;;;;;;31.00;14.80;;;;;;;;;;4998104;28;20389;-76
2022/12/11 13:33:31;;;;;;;40.28;15.68;;;;;;;;;;4997984;28;20458;-76
2022/12/11 13:36:17;;;;;;;36.95;15.20;;;;;;;;;;4997805;28;20105;-76
2022/12/11 13:38:49;;;;;;;37.60;15.63;;;;;;;;;;4984414;28;20361;-77
2022/12/11 13:41:15;;;;;;;33.28;14.43;;;;;;;;;;4989830;28;20026;-77
2022/12/11 13:43:41;;;;;;;33.15;14.07;;;;;;;;;;4978348;28;20026;-77
2022/12/11 13:46:10;;;;;;;33.17;12.93;;;;;;;;;;4986052;28;20031;-77
2022/12/11 13:48:45;;;;;;;30.88;14.35;;;;;;;;;;4998372;28;20131;-78
2022/12/11 13:51:18;;;;;;;32.85;14.13;;;;;;;;;;4998467;28;20027;-78
2022/12/11 13:53:44;;;;;;;33.53;14.52;;;;;;;;;;4981335;28;20035;-78
2022/12/11 13:56:17;;;;;;;31.75;13.43;;;;;;;;;;4998522;28;20057;-78
2022/12/11 13:58:43;;;;;;;28.17;13.38;;;;;;;;;;4999264;28;20120;-78
2022/12/11 14:01:10;;;;;;;32.03;13.05;;;;;;;;;;4998727;28;20038;-77
2022/12/11 14:03:40;;;;;;;28.98;13.07;;;;;;;;;;4999256;28;20085;-78
2022/12/11 14:06:10;;;;;;;32.15;14.30;;;;;;;;;;4998110;28;20472;-78
2022/12/11 14:08:37;;;;;;;32.08;14.00;;;;;;;;;;4986394;28;20062;-77
2022/12/11 14:11:04;;;;;;;33.33;13.43;;;;;;;;;;4977392;28;20090;-77
2022/12/11 14:13:35;;;;;;;32.42;13.90;;;;;;;;;;4977708;28;20041;-77
2022/12/11 14:16:01;;;;;;;32.50;14.00;;;;;;;;;;4977980;28;20024;-77
2022/12/11 14:18:28;;;;;;;40.05;15.48;;;;;;;;;;4978309;28;20030;-77
2022/12/11 14:20:58;;;;;;;34.40;14.82;;;;;;;;;;4984268;28;20022;-78
2022/12/11 14:23:28;;;;;;;32.40;13.45;;;;;;;;;;4997802;28;20032;-77
2022/12/11 14:25:56;;;;;;;34.42;14.40;;;;;;;;;;4998520;28;20082;-77
2022/12/11 14:28:26;;;;;;;37.00;14.45;;;;;;;;;;4997456;28;20038;-77
2022/12/11 14:30:53;;;;;;;27.60;13.30;;;;;;;;;;4959914;28;20035;-79
2022/12/11 14:33:21;;;;;;;30.48;13.70;;;;;;;;;;4981555;28;20046;-79
2022/12/11 14:35:48;;;;;;;33.38;14.48;;;;;;;;;;4996043;28;20026;-78
2022/12/11 14:38:20;;;;;;;32.08;13.88;;;;;;;;;;4997158;28;20030;-78